Time;durP1;ratioP1;P1;durP2;ratioP2;P2;SDS_P1;SDS_P2;PMS_P1;PMS_P2;Temp;Humidity;BMP_temperature;BMP_pressure;BME280_temperature;BME280_humidity;BME280_pressure;Samples;Min_cycle;Max_cycle;Signal;HPM_P1;HPM_P2
2023/10/11 00:01:19;;;;;;;0.60;0.60;;;;;;;7.28;90.74;98851.09;5006220;28;20045;-80
2023/10/11 00:03:54;;;;;;;0.60;0.60;;;;;;;7.33;90.97;98854.84;5005530;28;20052;-82
2023/10/11 00:06:20;;;;;;;0.60;0.60;;;;;;;7.09;90.79;98847.66;5007499;28;20065;-81
2023/10/11 00:08:45;;;;;;;0.60;0.60;;;;;;;7.17;91.02;98851.53;5006483;28;20091;-81
2023/10/11 00:11:18;;;;;;;0.60;0.60;;;;;;;7.21;90.88;98844.63;5000624;28;20776;-81
2023/10/11 00:13:44;;;;;;;0.60;0.60;;;;;;;7.37;90.67;98847.09;5002877;28;20038;-80
2023/10/11 00:16:10;;;;;;;0.60;0.60;;;;;;;7.42;90.61;98848.19;5007681;28;20029;-81
2023/10/11 00:18:41;;;;;;;0.70;0.70;;;;;;;7.51;90.00;98844.16;5015471;28;20038;-81
2023/10/11 00:21:40;;;;;;;0.50;0.50;;;;;;;7.36;90.10;98842.63;5000554;28;20041;-82
2023/10/11 00:23:55;;;;;;;0.60;0.60;;;;;;;7.31;90.23;98849.50;5004683;28;20381;-81
2023/10/11 00:26:22;;;;;;;0.60;0.60;;;;;;;7.36;90.57;98847.03;5001621;28;20503;-81
2023/10/11 00:28:53;;;;;;;0.70;0.70;;;;;;;7.31;90.37;98837.97;4997157;28;20132;-82
2023/10/11 00:31:19;;;;;;;0.60;0.60;;;;;;;7.32;90.62;98846.00;5012627;28;20081;-81
2023/10/11 00:33:46;;;;;;;0.60;0.60;;;;;;;7.39;90.65;98834.81;5003052;28;20031;-82
2023/10/11 00:36:13;;;;;;;;;;;;;;;7.52;90.69;98835.34;4985388;28;20105;-80
2023/10/11 00:38:50;;;;;;;0.60;0.60;;;;;;;7.61;90.49;98827.75;5001045;28;19917;-83
2023/10/11 00:41:18;;;;;;;0.60;0.60;;;;;;;7.70;90.43;98825.50;5006173;28;20046;-80
2023/10/11 00:43:54;;;;;;;0.60;0.60;;;;;;;7.89;90.48;98825.41;5003503;28;20103;-81
2023/10/11 00:46:24;;;;;;;0.70;0.70;;;;;;;7.98;89.63;98815.16;5001464;28;20079;-82
2023/10/11 00:51:24;;;;;;;0.60;0.60;;;;;;;8.11;89.49;98811.25;5008804;28;20041;-82
2023/10/11 00:53:51;;;;;;;0.55;0.55;;;;;;;8.03;89.77;98811.78;4991983;28;20044;-82
2023/10/11 00:56:18;;;;;;;0.50;0.50;;;;;;;8.08;89.04;98803.16;5006915;28;20038;-81
2023/10/11 00:58:44;;;;;;;0.50;0.50;;;;;;;8.10;89.60;98806.78;5009195;28;20096;-80
2023/10/11 01:01:10;;;;;;;0.60;0.60;;;;;;;8.22;89.75;98806.34;5008386;28;20045;-81
2023/10/11 01:03:37;;;;;;;0.50;0.50;;;;;;;8.26;89.78;98808.31;5019549;28;20029;-81
2023/10/11 01:06:04;;;;;;;0.60;0.60;;;;;;;8.26;89.83;98802.06;5022480;28;20038;-81
2023/10/11 01:08:38;;;;;;;0.50;0.50;;;;;;;8.44;89.46;98808.16;5003067;28;20080;-81
2023/10/11 01:11:11;;;;;;;0.50;0.50;;;;;;;8.34;89.71;98808.63;5007665;28;20036;-83
2023/10/11 01:13:40;;;;;;;0.50;0.50;;;;;;;8.34;89.21;98803.28;5001091;28;20555;-84
2023/10/11 01:16:15;;;;;;;0.50;0.50;;;;;;;8.40;89.20;98807.13;5005091;28;20080;-81
2023/10/11 01:18:54;;;;;;;0.50;0.50;;;;;;;8.42;89.05;98792.13;5002931;28;20098;-81
2023/10/11 01:21:20;;;;;;;0.50;0.50;;;;;;;8.58;88.28;98800.72;5007756;28;20046;-81
2023/10/11 01:23:46;;;;;;;0.52;0.52;;;;;;;8.60;87.92;98804.31;5008519;28;20569;-83
2023/10/11 01:26:11;;;;;;;0.50;0.50;;;;;;;8.62;88.44;98795.53;5012926;28;20042;-82
2023/10/11 01:28:40;;;;;;;0.50;0.50;;;;;;;8.61;88.32;98798.16;5010413;28;20455;-82
2023/10/11 01:31:11;;;;;;;0.50;0.50;;;;;;;8.61;88.42;98795.47;5016145;28;20072;-83
2023/10/11 01:33:36;;;;;;;0.50;0.50;;;;;;;8.54;89.13;98789.03;5019442;28;20106;-82
2023/10/11 01:36:06;;;;;;;0.50;0.50;;;;;;;8.55;89.07;98797.91;5000187;28;20183;-82
2023/10/11 01:38:45;;;;;;;0.50;0.50;;;;;;;8.50;88.86;98791.53;5021553;28;20033;-81
2023/10/11 01:41:13;;;;;;;0.50;0.50;;;;;;;8.56;88.89;98786.44;5012598;28;20038;-81
2023/10/11 01:43:38;;;;;;;;;;;;;;;8.54;88.79;98785.47;5006522;28;20033;-82
2023/10/11 01:46:04;;;;;;;0.57;0.57;;;;;;;8.61;88.44;98791.06;5006964;28;19939;-82
2023/10/11 01:48:29;;;;;;;0.50;0.50;;;;;;;8.57;88.33;98786.47;5008118;28;20042;-82
2023/10/11 01:51:01;;;;;;;0.60;0.60;;;;;;;8.35;88.67;98792.72;5023366;28;20042;-82
2023/10/11 01:53:27;;;;;;;0.52;0.52;;;;;;;8.35;88.87;98782.06;5012799;28;20377;-82
2023/10/11 01:55:55;;;;;;;0.50;0.50;;;;;;;8.26;89.07;98778.16;4998047;28;20041;-82
2023/10/11 01:58:20;;;;;;;0.50;0.50;;;;;;;8.19;89.33;98783.25;5008031;28;20068;-83
2023/10/11 02:00:48;;;;;;;0.50;0.50;;;;;;;8.20;89.38;98781.50;5005671;28;20049;-82
2023/10/11 02:03:14;;;;;;;0.55;0.55;;;;;;;8.13;89.80;98774.09;5005632;28;20448;-82
2023/10/11 02:05:41;;;;;;;0.60;0.60;;;;;;;8.14;90.03;98779.47;4984790;28;20759;-82
2023/10/11 02:08:11;;;;;;;0.50;0.50;;;;;;;8.08;89.91;98778.34;5003475;28;20038;-81
2023/10/11 02:10:36;;;;;;;0.43;0.43;;;;;;;8.25;89.82;98771.03;5020030;28;20041;-81
2023/10/11 02:13:04;;;;;;;0.50;0.50;;;;;;;8.14;89.86;98771.50;5006601;28;20033;-81
2023/10/11 02:15:29;;;;;;;;;;;;;;;8.09;90.07;98773.06;4992070;28;20498;-81
2023/10/11 02:17:56;;;;;;;0.60;0.60;;;;;;;8.12;90.02;98770.53;5016882;28;20367;-82
2023/10/11 02:20:21;;;;;;;0.50;0.50;;;;;;;8.01;90.39;98769.22;5004262;28;20362;-83
2023/10/11 02:22:51;;;;;;;0.52;0.52;;;;;;;7.86;90.12;98771.28;5008172;28;20728;-82
2023/10/11 02:25:24;;;;;;;0.55;0.55;;;;;;;7.89;90.74;98772.28;5008468;28;20038;-81
2023/10/11 02:27:51;;;;;;;0.52;0.52;;;;;;;7.89;90.62;98774.03;5002351;28;20088;-81
2023/10/11 02:30:21;;;;;;;0.60;0.60;;;;;;;7.74;90.39;98774.31;5003932;28;20407;-81
2023/10/11 02:32:49;;;;;;;0.57;0.57;;;;;;;7.69;90.66;98776.78;5021734;28;20077;-80
2023/10/11 02:35:18;;;;;;;0.60;0.60;;;;;;;7.75;90.83;98768.16;5003965;28;20065;-80
2023/10/11 02:37:45;;;;;;;0.50;0.50;;;;;;;7.69;90.58;98771.47;5006363;28;20034;-79
2023/10/11 02:40:16;;;;;;;0.60;0.60;;;;;;;7.75;90.79;98772.56;4986233;28;20042;-81
2023/10/11 02:42:46;;;;;;;0.50;0.50;;;;;;;7.76;90.70;98777.03;5007344;28;20077;-83
2023/10/11 02:45:13;;;;;;;0.60;0.60;;;;;;;7.71;90.68;98777.78;5003589;28;20045;-82
2023/10/11 02:47:40;;;;;;;0.60;0.60;;;;;;;7.67;91.02;98772.28;5006837;28;20748;-82
2023/10/11 02:50:07;;;;;;;0.60;0.60;;;;;;;7.61;90.80;98769.34;5003232;28;20049;-81
2023/10/11 02:52:36;;;;;;;0.60;0.60;;;;;;;7.82;90.74;98770.25;5000476;28;20033;-82
2023/10/11 02:55:16;;;;;;;0.60;0.60;;;;;;;7.75;90.80;98773.47;5000986;28;20526;-82
2023/10/11 02:57:43;;;;;;;0.60;0.60;;;;;;;7.82;90.83;98772.91;4985655;28;20658;-82
2023/10/11 03:00:21;;;;;;;0.60;0.60;;;;;;;7.91;90.58;98767.06;5006233;28;20065;-81
2023/10/11 03:02:54;;;;;;;0.60;0.60;;;;;;;7.81;91.16;98771.09;5000905;28;20037;-84
2023/10/11 03:05:27;;;;;;;0.60;0.60;;;;;;;7.70;91.11;98775.03;4988525;28;20215;-83
2023/10/11 03:10:44;;;;;;;0.60;0.60;;;;;;;7.57;91.06;98767.41;4997705;28;20044;-83
2023/10/11 03:13:41;;;;;;;0.60;0.60;;;;;;;7.53;91.27;98763.75;4987580;28;20053;-83
2023/10/11 03:16:00;;;;;;;0.60;0.60;;;;;;;7.60;90.98;98767.53;5000676;28;20134;-82
2023/10/11 03:18:31;;;;;;;0.60;0.60;;;;;;;7.44;91.07;98764.25;5007915;28;20128;-82
2023/10/11 03:21:09;;;;;;;0.50;0.50;;;;;;;7.39;90.96;98765.81;5007563;28;20046;-82
2023/10/11 03:23:45;;;;;;;0.60;0.60;;;;;;;7.31;91.17;98763.66;5016370;28;20484;-82
2023/10/11 03:26:38;;;;;;;0.60;0.60;;;;;;;7.31;91.37;98766.31;5007293;28;20053;-82
2023/10/11 03:29:04;;;;;;;0.60;0.60;;;;;;;7.38;91.43;98761.34;5001656;28;20140;-81
2023/10/11 03:31:39;;;;;;;0.50;0.50;;;;;;;7.32;91.23;98755.75;5008880;28;20141;-82
2023/10/11 03:34:14;;;;;;;0.60;0.60;;;;;;;7.34;91.47;98756.75;5005894;28;20038;-82
2023/10/11 03:36:51;;;;;;;0.50;0.50;;;;;;;7.40;91.55;98753.44;5005268;28;20484;-83
2023/10/11 03:39:28;;;;;;;0.70;0.70;;;;;;;7.35;91.54;98750.59;5001668;28;20038;-82
2023/10/11 03:42:07;;;;;;;0.57;0.57;;;;;;;7.17;91.15;98752.47;5016278;28;20483;-82
2023/10/11 03:44:36;;;;;;;0.70;0.70;;;;;;;7.40;91.29;98756.09;5003956;28;20049;-82
2023/10/11 03:47:06;;;;;;;0.60;0.60;;;;;;;7.20;91.28;98755.25;5004799;28;20131;-82
2023/10/11 03:49:35;;;;;;;0.60;0.60;;;;;;;7.10;91.66;98756.63;5001897;28;20034;-82
2023/10/11 03:52:01;;;;;;;0.60;0.60;;;;;;;7.05;91.81;98752.84;5008114;28;20088;-82
2023/10/11 03:54:26;;;;;;;0.60;0.60;;;;;;;6.97;91.80;98748.06;5005255;28;20038;-83
2023/10/11 03:56:53;;;;;;;0.60;0.60;;;;;;;7.20;91.77;98742.91;5002966;28;20095;-82
2023/10/11 03:59:26;;;;;;;0.60;0.60;;;;;;;7.19;91.56;98748.16;5004955;28;20041;-83
2023/10/11 04:01:58;;;;;;;0.68;0.68;;;;;;;7.24;91.33;98746.59;5003840;28;20046;-82
2023/10/11 04:04:24;;;;;;;0.60;0.60;;;;;;;7.06;91.14;98748.47;5019961;28;20037;-82
2023/10/11 04:07:01;;;;;;;0.60;0.60;;;;;;;6.87;91.21;98749.41;5002844;28;20120;-82
2023/10/11 04:12:00;;;;;;;0.60;0.60;;;;;;;6.91;91.47;98746.94;4997764;28;20045;-82
2023/10/11 04:14:45;;;;;;;0.70;0.70;;;;;;;6.82;91.25;98754.50;5004619;28;20033;-85
2023/10/11 04:19:51;;;;;;;0.60;0.60;;;;;;;6.92;91.94;98748.75;5003536;28;20057;-84
2023/10/11 04:22:27;;;;;;;0.60;0.60;;;;;;;6.65;91.52;98748.44;5021829;28;20046;-84
2023/10/11 04:24:54;;;;;;;0.60;0.60;;;;;;;6.69;91.69;98742.44;5008562;28;20144;-84
2023/10/11 04:29:51;;;;;;;0.60;0.60;;;;;;;6.65;91.68;98752.84;5003019;28;20319;-84
2023/10/11 04:33:03;;;;;;;0.70;0.70;;;;;;;6.63;91.93;98742.16;5008242;28;20776;-86
2023/10/11 04:35:10;;;;;;;0.70;0.70;;;;;;;6.63;91.75;98750.13;4998233;28;20108;-85
2023/10/11 04:37:44;;;;;;;0.65;0.65;;;;;;;6.71;92.06;98750.47;5008536;28;20538;-86
2023/10/11 04:40:23;;;;;;;0.60;0.60;;;;;;;6.77;91.84;98750.75;5009921;28;20041;-86
2023/10/11 04:43:04;;;;;;;0.70;0.70;;;;;;;6.67;91.81;98748.53;5004193;28;20458;-85
2023/10/11 04:45:31;;;;;;;0.60;0.60;;;;;;;6.84;91.86;98750.16;5002250;28;20034;-85
2023/10/11 04:47:58;;;;;;;0.60;0.60;;;;;;;6.73;91.73;98748.78;5007665;28;20805;-85
2023/10/11 04:50:24;;;;;;;0.60;0.60;;;;;;;6.72;91.79;98762.91;5004210;28;20067;-84
2023/10/11 04:52:49;;;;;;;0.60;0.60;;;;;;;6.98;91.56;98756.06;4999839;28;20578;-84
2023/10/11 04:55:19;;;;;;;0.60;0.60;;;;;;;6.93;91.51;98761.16;5007279;28;20038;-84
2023/10/11 04:58:04;;;;;;;0.60;0.60;;;;;;;6.91;91.40;98761.97;5005751;28;20574;-83
2023/10/11 05:00:43;;;;;;;0.70;0.70;;;;;;;7.01;91.27;98764.16;5006945;28;20037;-83
2023/10/11 05:03:10;;;;;;;0.60;0.60;;;;;;;7.01;91.49;98761.53;5002805;28;20037;-83
2023/10/11 05:05:35;;;;;;;0.60;0.60;;;;;;;6.92;91.31;98766.41;5006011;28;20034;-83
2023/10/11 05:08:20;;;;;;;0.70;0.70;;;;;;;6.77;91.33;98774.59;5004833;28;20042;-83
2023/10/11 05:10:46;;;;;;;0.60;0.60;;;;;;;6.71;91.16;98771.69;5007924;28;20137;-84
2023/10/11 05:13:16;;;;;;;0.60;0.60;;;;;;;6.78;91.08;98776.41;5006183;28;20107;-84
2023/10/11 05:15:47;;;;;;;0.60;0.60;;;;;;;6.64;91.13;98767.84;5006427;28;20034;-83
2023/10/11 05:18:18;;;;;;;0.60;0.60;;;;;;;6.54;91.28;98764.72;5005624;28;20364;-84
2023/10/11 05:20:57;;;;;;;0.60;0.60;;;;;;;6.38;91.08;98766.66;5001703;28;20133;-82
2023/10/11 05:23:32;;;;;;;0.60;0.60;;;;;;;6.43;91.53;98764.22;5000604;28;20125;-83
2023/10/11 05:25:58;;;;;;;0.60;0.60;;;;;;;6.50;91.58;98762.75;5002116;28;20076;-83
2023/10/11 05:28:43;;;;;;;0.60;0.60;;;;;;;6.40;91.47;98759.69;5021048;28;20559;-84
2023/10/11 05:36:48;;;;;;;0.70;0.70;;;;;;;6.34;91.78;98764.72;5003330;28;20057;-84
2023/10/11 05:52:55;;;;;;;0.70;0.70;;;;;;;6.37;91.94;98780.75;4995632;28;20053;-83
2023/10/11 05:55:22;;;;;;;0.60;0.60;;;;;;;6.39;91.50;98783.47;4993185;28;20033;-84
2023/10/11 05:57:48;;;;;;;0.70;0.70;;;;;;;6.51;91.46;98778.72;5003198;28;20072;-85
2023/10/11 06:00:25;;;;;;;0.70;0.70;;;;;;;6.48;91.67;98785.66;5004619;28;20067;-84
2023/10/11 06:02:52;;;;;;;0.60;0.60;;;;;;;6.47;91.60;98781.16;5006911;28;20531;-85
2023/10/11 06:05:23;;;;;;;0.70;0.70;;;;;;;6.45;91.54;98783.75;5003552;28;20042;-88
2023/10/11 06:08:00;;;;;;;0.68;0.68;;;;;;;6.53;91.35;98777.06;5006489;28;20045;-87
2023/10/11 06:10:32;;;;;;;0.65;0.65;;;;;;;6.60;91.44;98781.78;5007715;28;20044;-86
2023/10/11 06:12:58;;;;;;;0.60;0.60;;;;;;;6.66;91.26;98782.09;5009423;28;20050;-86
2023/10/11 06:15:24;;;;;;;0.70;0.70;;;;;;;6.81;91.27;98781.88;5002787;28;20045;-86
2023/10/11 06:17:49;;;;;;;0.60;0.60;;;;;;;7.02;90.97;98770.38;5005587;28;20034;-86
2023/10/11 06:20:27;;;;;;;0.60;0.60;;;;;;;7.32;90.41;98773.44;5003588;28;20938;-85
2023/10/11 06:22:53;;;;;;;0.60;0.60;;;;;;;7.63;89.59;98773.00;5007475;28;20042;-86
2023/10/11 06:26:28;;;;;;;0.70;0.70;;;;;;;7.91;88.61;98765.28;5005596;28;20042;-85
2023/10/11 06:28:13;;;;;;;0.60;0.60;;;;;;;8.28;87.71;98773.78;5003549;28;20042;-86
2023/10/11 06:30:47;;;;;;;0.57;0.57;;;;;;;8.70;86.07;98772.78;5007686;28;20069;-86
2023/10/11 06:33:13;;;;;;;0.52;0.52;;;;;;;8.67;85.28;98763.78;5005216;28;20038;-86
2023/10/11 06:35:49;;;;;;;0.50;0.50;;;;;;;8.93;85.11;98763.00;5020833;28;20038;-85
2023/10/11 06:38:15;;;;;;;0.50;0.50;;;;;;;9.36;84.96;98761.84;5003658;28;20537;-86
2023/10/11 06:40:47;;;;;;;0.40;0.40;;;;;;;9.63;83.31;98763.63;5002370;28;20128;-85
2023/10/11 06:43:13;;;;;;;0.50;0.50;;;;;;;9.87;82.23;98760.84;5008706;28;20740;-86
2023/10/11 06:45:42;;;;;;;0.40;0.40;;;;;;;10.13;82.15;98764.38;4999560;28;20571;-84
2023/10/11 06:48:09;;;;;;;0.40;0.40;;;;;;;10.52;81.57;98765.59;5003854;28;20073;-84
2023/10/11 06:50:38;;;;;;;0.40;0.40;;;;;;;10.86;80.36;98760.34;5006716;28;20045;-85
2023/10/11 06:53:08;;;;;;;0.40;0.40;;;;;;;11.13;79.27;98762.91;5006529;28;20085;-85
2023/10/11 06:55:47;;;;;;;0.40;0.40;;;;;;;11.52;78.64;98769.28;5002965;28;20754;-85
2023/10/11 06:58:19;;;;;;;0.40;0.40;;;;;;;11.43;77.56;98766.38;5005222;28;20041;-86
2023/10/11 07:00:48;;;;;;;0.40;0.40;;;;;;;11.75;78.29;98766.31;5001986;28;20039;-85
2023/10/11 07:03:26;;;;;;;0.40;0.40;;;;;;;12.14;78.11;98771.75;5002903;28;20049;-86
2023/10/11 07:06:00;;;;;;;0.30;0.30;;;;;;;12.64;75.75;98761.25;4998907;28;21050;-86
2023/10/11 07:08:32;;;;;;;0.30;0.30;;;;;;;12.67;74.41;98763.09;5020570;28;20066;-85
2023/10/11 07:13:54;;;;;;;0.30;0.30;;;;;;;13.12;75.27;98763.13;5022713;28;20038;-86
2023/10/11 07:16:30;;;;;;;0.20;0.20;;;;;;;13.76;71.76;98767.03;5005382;28;20034;-85
2023/10/11 07:18:57;;;;;;;0.20;0.20;;;;;;;14.06;72.73;98771.09;4999894;28;20038;-85
2023/10/11 07:21:26;;;;;;;0.30;0.30;;;;;;;14.29;71.52;98766.09;5002176;28;20045;-86
2023/10/11 07:29:00;;;;;;;0.20;0.20;;;;;;;15.87;66.58;98763.53;5005257;28;20046;-85
2023/10/11 07:31:32;;;;;;;0.20;0.20;;;;;;;16.28;66.29;98760.25;5007281;28;20053;-85
2023/10/11 07:34:09;;;;;;;0.20;0.20;;;;;;;16.36;67.45;98763.91;4997502;28;20039;-86
2023/10/11 07:36:39;;;;;;;0.10;0.10;;;;;;;16.98;62.24;98759.78;5018025;28;20067;-86
2023/10/11 07:41:52;;;;;;;0.10;0.10;;;;;;;17.39;61.16;98762.59;5002755;28;20430;-85
2023/10/11 07:44:18;;;;;;;0.10;0.10;;;;;;;18.18;60.60;98759.09;5018119;28;20124;-84
2023/10/11 07:46:48;;;;;;;0.10;0.10;;;;;;;18.81;59.29;98765.31;5001994;28;20052;-84
2023/10/11 07:49:23;;;;;;;0.10;0.10;;;;;;;19.36;57.03;98765.09;4999326;28;20042;-84
2023/10/11 07:51:52;;;;;;;0.10;0.10;;;;;;;19.73;55.96;98764.88;5013235;28;20042;-84
2023/10/11 07:54:20;;;;;;;0.10;0.10;;;;;;;19.90;55.30;98760.25;5000563;28;20041;-84
2023/10/11 07:56:48;;;;;;;0.10;0.10;;;;;;;20.11;54.59;98755.53;5002570;28;20037;-84
2023/10/11 07:59:14;;;;;;;0.10;0.10;;;;;;;20.74;52.30;98747.72;5001594;28;20176;-84
2023/10/11 08:01:42;;;;;;;0.10;0.10;;;;;;;21.40;49.77;98739.66;5001979;28;20030;-85
2023/10/11 08:04:12;;;;;;;0.10;0.10;;;;;;;21.86;48.04;98732.66;4997750;28;20054;-84
2023/10/11 08:06:40;;;;;;;0.10;0.10;;;;;;;22.19;47.58;98732.13;4998910;28;20050;-85
2023/10/11 08:09:06;;;;;;;0.10;0.10;;;;;;;22.61;47.11;98736.78;5003651;28;20046;-85
2023/10/11 08:12:14;;;;;;;0.10;0.10;;;;;;;22.90;46.55;98741.69;5005762;28;20037;-85
2023/10/11 08:14:28;;;;;;;0.10;0.10;;;;;;;22.70;46.65;98742.06;4997877;28;20139;-84
2023/10/11 08:16:56;;;;;;;0.00;0.00;;;;;;;23.11;45.57;98746.69;5003610;28;20034;-84
2023/10/11 08:19:22;;;;;;;0.00;0.00;;;;;;;23.36;45.43;98738.91;5005099;28;20046;-85
2023/10/11 08:21:57;;;;;;;;;;;;;;;23.54;45.64;98738.50;5008227;28;20034;-85
2023/10/11 08:24:28;;;;;;;0.00;0.00;;;;;;;24.18;44.28;98736.06;5003833;28;20004;-85
2023/10/11 08:26:57;;;;;;;0.03;0.03;;;;;;;24.48;43.93;98737.13;4999719;28;20046;-84
2023/10/11 08:29:29;;;;;;;0.00;0.00;;;;;;;24.83;43.78;98738.00;4998875;28;20661;-84
2023/10/11 08:31:59;;;;;;;0.00;0.00;;;;;;;25.18;42.53;98741.56;5020226;28;20049;-85
2023/10/11 08:34:27;;;;;;;0.00;0.00;;;;;;;25.53;41.22;98737.75;4998245;28;20049;-84
2023/10/11 08:36:54;;;;;;;0.00;0.00;;;;;;;25.73;41.17;98740.78;5000433;28;20113;-85
2023/10/11 08:39:35;;;;;;;0.00;0.00;;;;;;;26.07;40.72;98742.44;5000335;28;20076;-85
2023/10/11 08:42:06;;;;;;;0.00;0.00;;;;;;;26.41;38.70;98730.34;4998579;28;20124;-84
2023/10/11 08:44:32;;;;;;;0.00;0.00;;;;;;;26.94;35.88;98731.19;4993787;28;20272;-85
2023/10/11 08:47:01;;;;;;;;;;;;;;;27.10;33.84;98731.53;5000003;28;20400;-85
2023/10/11 08:49:27;;;;;;;0.00;0.00;;;;;;;27.02;32.91;98725.41;5016491;28;20000;-85
2023/10/11 08:51:56;;;;;;;0.00;0.00;;;;;;;27.82;32.44;98717.78;4999889;28;20050;-85
2023/10/11 08:54:26;;;;;;;0.00;0.00;;;;;;;27.80;31.33;98726.06;4999971;28;20045;-85
2023/10/11 08:56:57;;;;;;;0.00;0.00;;;;;;;27.00;33.12;98719.13;5002527;28;20439;-85
2023/10/11 08:59:27;;;;;;;0.00;0.00;;;;;;;27.97;31.85;98708.91;5000488;28;20123;-85
2023/10/11 09:01:59;;;;;;;0.00;0.00;;;;;;;28.03;31.35;98711.44;5002155;28;20034;-85
2023/10/11 09:04:27;;;;;;;0.00;0.00;;;;;;;25.54;33.61;98706.78;4986341;28;20065;-85
2023/10/11 09:06:57;;;;;;;0.00;0.00;;;;;;;26.44;33.52;98702.91;5001659;28;20049;-85
2023/10/11 09:09:47;;;;;;;0.00;0.00;;;;;;;25.33;34.90;98706.47;5017675;28;20052;-85
2023/10/11 09:12:25;;;;;;;0.00;0.00;;;;;;;24.27;36.79;98704.94;5000961;28;20544;-85
2023/10/11 09:14:59;;;;;;;0.00;0.00;;;;;;;25.15;35.22;98709.78;5003786;28;20130;-86
2023/10/11 09:17:26;;;;;;;0.00;0.00;;;;;;;26.58;33.87;98706.03;5001504;28;20117;-85
2023/10/11 09:19:53;;;;;;;0.00;0.00;;;;;;;27.17;32.60;98702.09;5003191;28;20497;-86
2023/10/11 09:22:19;;;;;;;0.00;0.00;;;;;;;28.27;30.65;98704.00;5021617;28;20037;-85
2023/10/11 09:24:44;;;;;;;0.00;0.00;;;;;;;27.76;30.80;98694.25;5005833;28;20057;-86
2023/10/11 09:29:47;;;;;;;0.00;0.00;;;;;;;29.00;28.97;98710.00;5004044;28;20045;-87
2023/10/11 09:32:27;;;;;;;0.00;0.00;;;;;;;29.38;28.47;98708.19;5005944;28;20567;-86
2023/10/11 09:34:54;;;;;;;0.00;0.00;;;;;;;29.42;28.26;98708.94;5009704;28;20515;-87
2023/10/11 09:37:23;;;;;;;0.00;0.00;;;;;;;30.10;27.46;98708.34;5018875;28;20129;-86
2023/10/11 09:39:51;;;;;;;0.00;0.00;;;;;;;29.36;28.40;98708.25;5015663;28;20396;-86
2023/10/11 09:42:17;;;;;;;0.00;0.00;;;;;;;29.55;28.04;98710.16;5012668;28;20037;-85
2023/10/11 09:44:46;;;;;;;0.00;0.00;;;;;;;30.02;28.02;98712.44;5011689;28;20057;-87
2023/10/11 09:47:16;;;;;;;0.00;0.00;;;;;;;30.72;27.37;98708.00;5015202;28;20774;-86
2023/10/11 09:49:42;;;;;;;0.00;0.00;;;;;;;29.46;28.66;98708.72;5014559;28;20428;-86
2023/10/11 09:52:09;;;;;;;0.00;0.00;;;;;;;29.46;28.91;98705.97;5026644;28;20034;-88
2023/10/11 09:54:37;;;;;;;0.00;0.00;;;;;;;30.19;27.75;98707.03;5009978;28;20128;-85
2023/10/11 09:57:29;;;;;;;0.00;0.00;;;;;;;31.05;27.08;98700.66;5018640;28;20040;-85
2023/10/11 10:00:14;;;;;;;0.00;0.00;;;;;;;31.21;26.50;98706.22;5007186;28;20046;-85
2023/10/11 10:02:46;;;;;;;0.00;0.00;;;;;;;31.72;26.20;98704.31;5001364;28;20319;-85
2023/10/11 10:05:13;;;;;;;0.00;0.00;;;;;;;31.08;27.22;98705.97;5003033;28;20057;-85
2023/10/11 10:10:06;;;;;;;0.00;0.00;;;;;;;31.07;26.86;98700.56;5004171;28;20447;-85
2023/10/11 10:12:43;;;;;;;0.00;0.00;;;;;;;31.21;27.36;98694.31;5003689;28;20083;-84
2023/10/11 10:15:14;;;;;;;0.00;0.00;;;;;;;31.57;26.83;98689.53;5004343;28;20038;-85
2023/10/11 10:18:05;;;;;;;0.00;0.00;;;;;;;29.72;28.93;98702.00;5005328;28;20128;-84
2023/10/11 10:20:33;;;;;;;0.00;0.00;;;;;;;31.13;27.97;98708.50;5004312;28;20048;-84
2023/10/11 10:23:14;;;;;;;0.00;0.00;;;;;;;30.53;28.47;98717.19;5002651;28;20054;-84
2023/10/11 10:25:45;;;;;;;0.00;0.00;;;;;;;30.98;27.33;98710.22;5002721;28;20052;-84
2023/10/11 10:28:45;;;;;;;0.00;0.00;;;;;;;31.32;27.13;98703.78;5005989;28;20049;-83
2023/10/11 10:31:21;;;;;;;0.00;0.00;;;;;;;31.53;27.25;98709.97;5000083;28;20868;-84
2023/10/11 10:34:05;;;;;;;0.00;0.00;;;;;;;31.87;26.92;98708.06;5000685;28;20155;-84
2023/10/11 10:36:31;;;;;;;0.00;0.00;;;;;;;32.34;25.94;98708.03;4990217;28;20060;-83
2023/10/11 10:38:59;;;;;;;0.00;0.00;;;;;;;31.73;26.69;98710.72;5000255;28;20038;-83
2023/10/11 10:41:30;;;;;;;0.00;0.00;;;;;;;31.47;26.16;98691.00;5002621;28;20045;-84
2023/10/11 10:44:08;;;;;;;0.00;0.00;;;;;;;31.47;27.25;98691.00;5003857;28;20056;-84
2023/10/11 10:46:53;;;;;;;0.00;0.00;;;;;;;31.88;26.19;98694.19;5007322;28;20034;-83
2023/10/11 10:49:41;;;;;;;0.00;0.00;;;;;;;33.47;22.92;98693.72;5007270;28;20046;-84
2023/10/11 10:52:25;;;;;;;0.00;0.00;;;;;;;33.12;23.13;98681.16;5003535;28;20419;-83
2023/10/11 10:55:09;;;;;;;0.00;0.00;;;;;;;33.77;21.86;98679.75;5003501;28;20103;-85
2023/10/11 10:57:41;;;;;;;0.00;0.00;;;;;;;33.26;21.76;98677.50;5005520;28;20038;-83
2023/10/11 11:00:21;;;;;;;0.00;0.00;;;;;;;32.64;22.21;98669.41;5004059;28;20033;-83
2023/10/11 11:02:46;;;;;;;0.00;0.00;;;;;;;33.03;21.96;98669.78;5000109;28;20076;-82
2023/10/11 11:05:15;;;;;;;0.00;0.00;;;;;;;32.96;22.72;98665.63;5013862;28;20062;-82
2023/10/11 11:07:47;;;;;;;0.00;0.00;;;;;;;33.27;22.35;98670.09;5003355;28;20453;-83
2023/10/11 11:10:20;;;;;;;0.00;0.00;;;;;;;32.99;22.08;98666.31;5004959;28;20432;-83
2023/10/11 11:12:46;;;;;;;0.00;0.00;;;;;;;33.60;22.32;98659.63;5005940;28;20034;-84
2023/10/11 11:15:20;;;;;;;0.00;0.00;;;;;;;33.64;21.86;98654.78;5007216;28;20470;-83
2023/10/11 11:17:50;;;;;;;0.00;0.00;;;;;;;33.44;23.12;98654.22;5001443;28;20037;-84
2023/10/11 11:22:52;;;;;;;0.00;0.00;;;;;;;33.83;22.26;98649.81;5017979;28;20114;-83
2023/10/11 11:28:25;;;;;;;0.00;0.00;;;;;;;35.01;21.10;98641.66;5002624;28;20045;-83
2023/10/11 11:30:50;;;;;;;0.00;0.00;;;;;;;34.83;20.94;98646.63;4983643;28;20049;-83
2023/10/11 11:33:34;;;;;;;0.00;0.00;;;;;;;34.16;22.37;98634.66;4999885;28;20137;-84
2023/10/11 11:36:00;;;;;;;0.00;0.00;;;;;;;34.82;21.01;98632.84;4998787;28;20120;-84
2023/10/11 11:38:29;;;;;;;0.00;0.00;;;;;;;35.04;20.92;98629.47;4996129;28;20050;-83
2023/10/11 11:41:06;;;;;;;0.00;0.00;;;;;;;35.09;20.82;98628.13;4998217;28;20184;-83
2023/10/11 11:43:32;;;;;;;0.00;0.00;;;;;;;35.93;19.73;98624.66;5002646;28;20044;-84
2023/10/11 11:46:01;;;;;;;0.00;0.00;;;;;;;35.47;20.75;98628.13;5001270;28;20045;-83
2023/10/11 11:48:27;;;;;;;0.00;0.00;;;;;;;33.80;22.33;98615.91;5001197;28;20042;-83
2023/10/11 11:50:56;;;;;;;0.00;0.00;;;;;;;34.73;21.77;98612.22;5003807;28;20634;-83
2023/10/11 11:53:22;;;;;;;0.00;0.00;;;;;;;36.02;20.18;98605.53;5002704;28;20048;-84
2023/10/11 11:55:47;;;;;;;0.00;0.00;;;;;;;35.02;20.80;98614.81;5002691;28;20121;-82
2023/10/11 11:58:16;;;;;;;0.00;0.00;;;;;;;34.96;20.87;98610.59;5001194;28;20041;-83
2023/10/11 12:00:45;;;;;;;0.00;0.00;;;;;;;35.72;20.41;98598.50;5003986;28;20044;-84
2023/10/11 12:03:11;;;;;;;0.00;0.00;;;;;;;34.94;20.87;98607.91;5002480;28;20527;-83
2023/10/11 12:05:41;;;;;;;0.00;0.00;;;;;;;35.47;19.93;98603.16;5001617;28;20042;-84
2023/10/11 12:08:20;;;;;;;0.00;0.00;;;;;;;36.21;19.52;98591.97;5004326;28;20898;-83
2023/10/11 12:10:47;;;;;;;0.00;0.00;;;;;;;34.65;22.22;98586.97;5002653;28;20045;-82
2023/10/11 12:13:22;;;;;;;0.08;0.08;;;;;;;34.90;21.72;98583.28;5020247;28;20849;-82
2023/10/11 12:15:49;;;;;;;0.00;0.00;;;;;;;35.36;21.38;98585.47;4999940;28;20045;-83
2023/10/11 12:18:15;;;;;;;0.00;0.00;;;;;;;35.46;21.23;98581.06;4983412;28;20383;-83
2023/10/11 12:20:43;;;;;;;0.00;0.00;;;;;;;35.73;21.37;98578.94;5001072;28;20054;-83
2023/10/11 12:23:09;;;;;;;0.00;0.00;;;;;;;34.95;21.48;98584.75;5002357;28;20044;-83
2023/10/11 12:25:38;;;;;;;0.00;0.00;;;;;;;34.93;21.77;98577.53;5002867;28;20041;-83
2023/10/11 12:28:06;;;;;;;0.00;0.00;;;;;;;34.52;22.05;98586.06;5001837;28;20046;-84
2023/10/11 12:30:35;;;;;;;0.00;0.00;;;;;;;34.82;21.49;98580.19;5002687;28;20038;-83
2023/10/11 12:33:06;;;;;;;0.00;0.00;;;;;;;33.99;22.39;98582.34;4988913;28;20407;-83
2023/10/11 12:35:42;;;;;;;0.00;0.00;;;;;;;34.49;22.60;98580.72;5015451;28;20034;-83
2023/10/11 12:38:12;;;;;;;0.00;0.00;;;;;;;34.87;22.41;98583.50;5020632;28;20045;-81
2023/10/11 12:40:41;;;;;;;0.00;0.00;;;;;;;34.17;23.04;98579.19;5005079;28;20841;-81
2023/10/11 12:43:09;;;;;;;0.00;0.00;;;;;;;34.51;22.84;98573.19;4999794;28;20084;-82
2023/10/11 12:45:36;;;;;;;0.00;0.00;;;;;;;34.49;22.65;98577.94;4999831;28;20039;-82
2023/10/11 12:48:07;;;;;;;;;;;;;;;34.58;23.55;98569.88;5001651;28;20035;-83
2023/10/11 12:50:38;;;;;;;0.00;0.00;;;;;;;33.73;23.27;98570.25;5000295;28;20326;-82